sensor_id;sensor_type;location;lat;lon;timestamp;temperature;humidity
74384;DHT22;62824;52.994;-3.936;2022-12-29T00:02:24;7.90;99.90
74384;DHT22;62824;52.994;-3.936;2022-12-29T00:04:50;7.90;99.90
74384;DHT22;62824;52.994;-3.936;2022-12-29T00:07:17;7.90;99.90
74384;DHT22;62824;52.994;-3.936;2022-12-29T00:09:42;7.90;99.90
74384;DHT22;62824;52.994;-3.936;2022-12-29T00:12:08;7.90;99.90
74384;DHT22;62824;52.994;-3.936;2022-12-29T00:14:34;7.80;99.90
74384;DHT22;62824;52.994;-3.936;2022-12-29T00:17:18;7.80;99.90
74384;DHT22;62824;52.994;-3.936;2022-12-29T00:19:44;7.80;99.90
74384;DHT22;62824;52.994;-3.936;2022-12-29T00:22:28;7.70;99.90
74384;DHT22;62824;52.994;-3.936;2022-12-29T00:25:13;7.70;99.90
74384;DHT22;62824;52.994;-3.936;2022-12-29T00:27:58;7.70;99.90
74384;DHT22;62824;52.994;-3.936;2022-12-29T00:30:45;7.70;99.90
74384;DHT22;62824;52.994;-3.936;2022-12-29T00:33:31;7.70;99.90
74384;DHT22;62824;52.994;-3.936;2022-12-29T00:36:28;7.70;99.90
74384;DHT22;62824;52.994;-3.936;2022-12-29T00:39:18;7.70;99.90
74384;DHT22;62824;52.994;-3.936;2022-12-29T00:42:08;7.60;99.90
74384;DHT22;62824;52.994;-3.936;2022-12-29T00:44:53;7.60;99.90
74384;DHT22;62824;52.994;-3.936;2022-12-29T00:47:19;7.50;99.90
74384;DHT22;62824;52.994;-3.936;2022-12-29T00:49:48;7.50;99.90
74384;DHT22;62824;52.994;-3.936;2022-12-29T00:56:04;7.40;99.90
74384;DHT22;62824;52.994;-3.936;2022-12-29T00:58:30;7.30;99.90
74384;DHT22;62824;52.994;-3.936;2022-12-29T01:01:03;7.30;99.90
74384;DHT22;62824;52.994;-3.936;2022-12-29T01:03:30;7.30;99.90
74384;DHT22;62824;52.994;-3.936;2022-12-29T01:05:56;7.30;99.90
74384;DHT22;62824;52.994;-3.936;2022-12-29T01:08:21;7.30;99.90
74384;DHT22;62824;52.994;-3.936;2022-12-29T01:11:00;7.30;99.90
74384;DHT22;62824;52.994;-3.936;2022-12-29T01:13:26;7.30;99.90
74384;DHT22;62824;52.994;-3.936;2022-12-29T01:15:53;7.30;99.90
74384;DHT22;62824;52.994;-3.936;2022-12-29T01:18:20;7.40;99.90
74384;DHT22;62824;52.994;-3.936;2022-12-29T01:20:46;7.40;99.90
74384;DHT22;62824;52.994;-3.936;2022-12-29T01:23:12;7.40;99.90
74384;DHT22;62824;52.994;-3.936;2022-12-29T01:25:38;7.40;99.90
74384;DHT22;62824;52.994;-3.936;2022-12-29T01:28:03;7.40;99.90
74384;DHT22;62824;52.994;-3.936;2022-12-29T01:30:30;7.30;99.90
74384;DHT22;62824;52.994;-3.936;2022-12-29T01:32:55;7.30;99.90
74384;DHT22;62824;52.994;-3.936;2022-12-29T01:35:21;7.40;99.90
74384;DHT22;62824;52.994;-3.936;2022-12-29T01:37:47;7.40;99.90
74384;DHT22;62824;52.994;-3.936;2022-12-29T01:40:13;7.40;99.90
74384;DHT22;62824;52.994;-3.936;2022-12-29T01:42:38;7.40;99.90
74384;DHT22;62824;52.994;-3.936;2022-12-29T01:45:15;7.40;99.90
74384;DHT22;62824;52.994;-3.936;2022-12-29T01:47:47;7.40;99.90
74384;DHT22;62824;52.994;-3.936;2022-12-29T01:52:56;7.40;99.90
74384;DHT22;62824;52.994;-3.936;2022-12-29T01:55:26;7.40;99.90
74384;DHT22;62824;52.994;-3.936;2022-12-29T01:57:53;7.40;99.90
74384;DHT22;62824;52.994;-3.936;2022-12-29T02:00:21;7.50;99.90
74384;DHT22;62824;52.994;-3.936;2022-12-29T02:02:52;7.40;99.90
74384;DHT22;62824;52.994;-3.936;2022-12-29T02:05:42;7.50;99.90
74384;DHT22;62824;52.994;-3.936;2022-12-29T02:08:11;7.50;99.90
74384;DHT22;62824;52.994;-3.936;2022-12-29T02:10:37;7.50;99.90
74384;DHT22;62824;52.994;-3.936;2022-12-29T02:13:04;7.50;99.90
74384;DHT22;62824;52.994;-3.936;2022-12-29T02:23:50;7.50;99.90
74384;DHT22;62824;52.994;-3.936;2022-12-29T02:30:05;7.50;99.90
74384;DHT22;62824;52.994;-3.936;2022-12-29T02:33:13;7.40;99.90
74384;DHT22;62824;52.994;-3.936;2022-12-29T02:35:54;7.40;99.90
74384;DHT22;62824;52.994;-3.936;2022-12-29T02:41:44;7.30;99.90
74384;DHT22;62824;52.994;-3.936;2022-12-29T02:47:04;7.40;99.90
74384;DHT22;62824;52.994;-3.936;2022-12-29T02:49:38;7.40;99.90
74384;DHT22;62824;52.994;-3.936;2022-12-29T02:52:09;7.30;99.90
74384;DHT22;62824;52.994;-3.936;2022-12-29T02:54:37;7.30;99.90
74384;DHT22;62824;52.994;-3.936;2022-12-29T02:59:53;7.30;99.90
74384;DHT22;62824;52.994;-3.936;2022-12-29T03:02:30;7.30;99.90
74384;DHT22;62824;52.994;-3.936;2022-12-29T03:10:51;7.40;99.90
74384;DHT22;62824;52.994;-3.936;2022-12-29T03:13:23;7.40;99.90
74384;DHT22;62824;52.994;-3.936;2022-12-29T03:16:28;7.30;99.90
74384;DHT22;62824;52.994;-3.936;2022-12-29T03:19:02;7.30;99.90
74384;DHT22;62824;52.994;-3.936;2022-12-29T03:21:32;7.30;99.90
74384;DHT22;62824;52.994;-3.936;2022-12-29T03:24:19;7.30;99.90
74384;DHT22;62824;52.994;-3.936;2022-12-29T03:26:47;7.30;99.90
74384;DHT22;62824;52.994;-3.936;2022-12-29T03:29:16;7.30;99.90
74384;DHT22;62824;52.994;-3.936;2022-12-29T03:31:42;7.30;99.90
74384;DHT22;62824;52.994;-3.936;2022-12-29T03:34:10;7.20;99.90
74384;DHT22;62824;52.994;-3.936;2022-12-29T03:36:44;7.20;99.90
74384;DHT22;62824;52.994;-3.936;2022-12-29T03:39:13;7.30;99.90
74384;DHT22;62824;52.994;-3.936;2022-12-29T03:41:41;7.30;99.90
74384;DHT22;62824;52.994;-3.936;2022-12-29T03:44:10;7.20;99.90
74384;DHT22;62824;52.994;-3.936;2022-12-29T03:46:37;7.30;99.90
74384;DHT22;62824;52.994;-3.936;2022-12-29T03:49:03;7.20;99.90
74384;DHT22;62824;52.994;-3.936;2022-12-29T03:51:28;7.20;99.90
74384;DHT22;62824;52.994;-3.936;2022-12-29T03:57:30;7.20;99.90
74384;DHT22;62824;52.994;-3.936;2022-12-29T03:59:56;7.20;99.90
74384;DHT22;62824;52.994;-3.936;2022-12-29T04:02:21;7.10;99.90
74384;DHT22;62824;52.994;-3.936;2022-12-29T04:04:47;7.20;99.90
74384;DHT22;62824;52.994;-3.936;2022-12-29T04:07:13;7.10;99.90
74384;DHT22;62824;52.994;-3.936;2022-12-29T04:09:38;7.10;99.90
74384;DHT22;62824;52.994;-3.936;2022-12-29T04:12:04;7.10;99.90
74384;DHT22;62824;52.994;-3.936;2022-12-29T04:14:30;7.20;99.90
74384;DHT22;62824;52.994;-3.936;2022-12-29T04:16:56;7.10;99.90
74384;DHT22;62824;52.994;-3.936;2022-12-29T04:19:21;7.10;99.90
74384;DHT22;62824;52.994;-3.936;2022-12-29T04:21:47;7.10;99.90
74384;DHT22;62824;52.994;-3.936;2022-12-29T04:24:13;7.10;99.90
74384;DHT22;62824;52.994;-3.936;2022-12-29T04:26:39;7.10;99.90
74384;DHT22;62824;52.994;-3.936;2022-12-29T04:29:04;7.10;99.90
74384;DHT22;62824;52.994;-3.936;2022-12-29T04:31:30;7.10;99.90
74384;DHT22;62824;52.994;-3.936;2022-12-29T04:33:56;7.10;99.90
74384;DHT22;62824;52.994;-3.936;2022-12-29T04:36:23;7.10;99.90
74384;DHT22;62824;52.994;-3.936;2022-12-29T04:38:49;7.10;99.90
74384;DHT22;62824;52.994;-3.936;2022-12-29T04:41:14;7.10;99.90
74384;DHT22;62824;52.994;-3.936;2022-12-29T04:43:40;7.10;99.90
74384;DHT22;62824;52.994;-3.936;2022-12-29T04:46:06;7.10;99.90
74384;DHT22;62824;52.994;-3.936;2022-12-29T04:48:32;7.10;99.90
74384;DHT22;62824;52.994;-3.936;2022-12-29T04:50:57;7.20;99.90
74384;DHT22;62824;52.994;-3.936;2022-12-29T04:53:23;7.10;99.90
74384;DHT22;62824;52.994;-3.936;2022-12-29T04:55:52;7.10;99.90
74384;DHT22;62824;52.994;-3.936;2022-12-29T04:58:19;7.10;99.90
74384;DHT22;62824;52.994;-3.936;2022-12-29T05:00:45;7.10;99.90
74384;DHT22;62824;52.994;-3.936;2022-12-29T05:03:11;7.10;99.90
74384;DHT22;62824;52.994;-3.936;2022-12-29T05:05:37;7.10;99.90
74384;DHT22;62824;52.994;-3.936;2022-12-29T05:08:02;7.10;99.90
74384;DHT22;62824;52.994;-3.936;2022-12-29T05:10:29;7.10;99.90
74384;DHT22;62824;52.994;-3.936;2022-12-29T05:12:55;7.10;99.90
74384;DHT22;62824;52.994;-3.936;2022-12-29T05:15:21;7.10;99.90
74384;DHT22;62824;52.994;-3.936;2022-12-29T05:17:47;7.10;99.90
74384;DHT22;62824;52.994;-3.936;2022-12-29T05:20:37;7.10;99.90
74384;DHT22;62824;52.994;-3.936;2022-12-29T05:23:03;7.10;99.90
74384;DHT22;62824;52.994;-3.936;2022-12-29T05:25:29;7.10;99.90
74384;DHT22;62824;52.994;-3.936;2022-12-29T05:27:55;7.10;99.90
74384;DHT22;62824;52.994;-3.936;2022-12-29T05:30:20;7.10;99.90
74384;DHT22;62824;52.994;-3.936;2022-12-29T05:32:46;7.10;99.90
74384;DHT22;62824;52.994;-3.936;2022-12-29T05:35:12;7.10;99.90
74384;DHT22;62824;52.994;-3.936;2022-12-29T05:37:38;7.10;99.90
74384;DHT22;62824;52.994;-3.936;2022-12-29T05:40:04;7.10;99.90
74384;DHT22;62824;52.994;-3.936;2022-12-29T05:42:30;7.20;99.90
74384;DHT22;62824;52.994;-3.936;2022-12-29T05:44:55;7.20;99.90
74384;DHT22;62824;52.994;-3.936;2022-12-29T05:47:21;7.20;99.90
74384;DHT22;62824;52.994;-3.936;2022-12-29T05:49:47;7.20;99.90
74384;DHT22;62824;52.994;-3.936;2022-12-29T05:52:13;7.10;99.90
74384;DHT22;62824;52.994;-3.936;2022-12-29T05:54:38;7.10;99.90
74384;DHT22;62824;52.994;-3.936;2022-12-29T05:57:04;7.10;99.90
74384;DHT22;62824;52.994;-3.936;2022-12-29T05:59:30;7.10;99.90
74384;DHT22;62824;52.994;-3.936;2022-12-29T06:01:56;7.10;99.90
74384;DHT22;62824;52.994;-3.936;2022-12-29T06:04:21;7.10;99.90
74384;DHT22;62824;52.994;-3.936;2022-12-29T06:06:47;7.10;99.90
74384;DHT22;62824;52.994;-3.936;2022-12-29T06:09:13;7.10;99.90
74384;DHT22;62824;52.994;-3.936;2022-12-29T06:11:39;7.10;99.90
74384;DHT22;62824;52.994;-3.936;2022-12-29T06:14:04;7.10;99.90
74384;DHT22;62824;52.994;-3.936;2022-12-29T06:16:30;7.10;99.90
74384;DHT22;62824;52.994;-3.936;2022-12-29T06:18:56;7.10;99.90
74384;DHT22;62824;52.994;-3.936;2022-12-29T06:21:21;7.10;99.90
74384;DHT22;62824;52.994;-3.936;2022-12-29T06:23:47;7.10;99.90
74384;DHT22;62824;52.994;-3.936;2022-12-29T06:26:13;7.10;99.90
74384;DHT22;62824;52.994;-3.936;2022-12-29T06:28:39;7.10;99.90
74384;DHT22;62824;52.994;-3.936;2022-12-29T06:31:05;7.00;99.90
74384;DHT22;62824;52.994;-3.936;2022-12-29T06:33:33;7.00;99.90
74384;DHT22;62824;52.994;-3.936;2022-12-29T06:35:59;7.00;99.90
74384;DHT22;62824;52.994;-3.936;2022-12-29T06:41:38;7.00;99.90
74384;DHT22;62824;52.994;-3.936;2022-12-29T06:44:04;7.00;99.90
74384;DHT22;62824;52.994;-3.936;2022-12-29T06:46:30;7.00;99.90
74384;DHT22;62824;52.994;-3.936;2022-12-29T06:48:56;7.00;99.90
74384;DHT22;62824;52.994;-3.936;2022-12-29T06:51:21;7.00;99.90
74384;DHT22;62824;52.994;-3.936;2022-12-29T06:53:47;6.90;99.90
74384;DHT22;62824;52.994;-3.936;2022-12-29T06:56:13;6.90;99.90
74384;DHT22;62824;52.994;-3.936;2022-12-29T06:58:38;6.90;99.90
74384;DHT22;62824;52.994;-3.936;2022-12-29T07:01:04;6.90;99.90
74384;DHT22;62824;52.994;-3.936;2022-12-29T07:03:30;6.90;99.90
74384;DHT22;62824;52.994;-3.936;2022-12-29T07:05:56;6.90;99.90
74384;DHT22;62824;52.994;-3.936;2022-12-29T07:08:23;6.90;99.90
74384;DHT22;62824;52.994;-3.936;2022-12-29T07:10:49;6.80;99.90
74384;DHT22;62824;52.994;-3.936;2022-12-29T07:13:15;6.70;99.90
74384;DHT22;62824;52.994;-3.936;2022-12-29T07:15:41;6.70;99.90
74384;DHT22;62824;52.994;-3.936;2022-12-29T07:18:07;6.70;99.90
74384;DHT22;62824;52.994;-3.936;2022-12-29T07:20:33;6.70;99.90
74384;DHT22;62824;52.994;-3.936;2022-12-29T07:22:58;6.70;99.90
74384;DHT22;62824;52.994;-3.936;2022-12-29T07:25:24;6.70;99.90
74384;DHT22;62824;52.994;-3.936;2022-12-29T07:27:50;6.70;99.90
74384;DHT22;62824;52.994;-3.936;2022-12-29T07:30:16;6.60;99.90
74384;DHT22;62824;52.994;-3.936;2022-12-29T07:32:42;6.60;99.90
74384;DHT22;62824;52.994;-3.936;2022-12-29T07:35:08;6.60;99.90
74384;DHT22;62824;52.994;-3.936;2022-12-29T07:37:34;6.60;99.90
74384;DHT22;62824;52.994;-3.936;2022-12-29T07:40:00;6.60;99.90
74384;DHT22;62824;52.994;-3.936;2022-12-29T07:42:26;6.60;99.90
74384;DHT22;62824;52.994;-3.936;2022-12-29T07:48:28;6.60;99.90
74384;DHT22;62824;52.994;-3.936;2022-12-29T07:50:53;6.60;99.90
74384;DHT22;62824;52.994;-3.936;2022-12-29T07:53:19;6.60;99.90
74384;DHT22;62824;52.994;-3.936;2022-12-29T07:55:45;6.60;99.90
74384;DHT22;62824;52.994;-3.936;2022-12-29T07:58:11;6.50;99.90
74384;DHT22;62824;52.994;-3.936;2022-12-29T08:00:38;6.50;99.90
74384;DHT22;62824;52.994;-3.936;2022-12-29T08:03:04;6.40;99.90
74384;DHT22;62824;52.994;-3.936;2022-12-29T08:05:34;6.50;99.90
74384;DHT22;62824;52.994;-3.936;2022-12-29T08:08:00;6.50;99.90
74384;DHT22;62824;52.994;-3.936;2022-12-29T08:10:25;6.50;99.90
74384;DHT22;62824;52.994;-3.936;2022-12-29T08:12:51;6.50;99.90
74384;DHT22;62824;52.994;-3.936;2022-12-29T08:15:17;6.50;99.90
74384;DHT22;62824;52.994;-3.936;2022-12-29T08:17:43;6.50;99.90
74384;DHT22;62824;52.994;-3.936;2022-12-29T08:20:09;6.50;99.90
74384;DHT22;62824;52.994;-3.936;2022-12-29T08:22:35;6.50;99.90
74384;DHT22;62824;52.994;-3.936;2022-12-29T08:25:01;6.50;99.90
74384;DHT22;62824;52.994;-3.936;2022-12-29T08:27:27;6.50;99.90
74384;DHT22;62824;52.994;-3.936;2022-12-29T08:29:53;6.50;99.90
74384;DHT22;62824;52.994;-3.936;2022-12-29T08:35:35;6.60;99.90
74384;DHT22;62824;52.994;-3.936;2022-12-29T08:38:01;6.60;99.90
74384;DHT22;62824;52.994;-3.936;2022-12-29T08:40:26;6.60;99.90
74384;DHT22;62824;52.994;-3.936;2022-12-29T08:42:52;6.50;99.90
74384;DHT22;62824;52.994;-3.936;2022-12-29T08:45:18;6.50;99.90
74384;DHT22;62824;52.994;-3.936;2022-12-29T08:47:43;6.50;99.90
74384;DHT22;62824;52.994;-3.936;2022-12-29T08:50:09;6.50;99.90
74384;DHT22;62824;52.994;-3.936;2022-12-29T08:52:35;6.50;99.90
74384;DHT22;62824;52.994;-3.936;2022-12-29T08:55:01;6.50;99.90
74384;DHT22;62824;52.994;-3.936;2022-12-29T08:57:27;6.50;99.90
74384;DHT22;62824;52.994;-3.936;2022-12-29T08:59:52;6.60;99.90
74384;DHT22;62824;52.994;-3.936;2022-12-29T09:02:18;6.60;99.90
74384;DHT22;62824;52.994;-3.936;2022-12-29T09:04:44;6.60;99.90
74384;DHT22;62824;52.994;-3.936;2022-12-29T09:07:09;6.60;99.90
74384;DHT22;62824;52.994;-3.936;2022-12-29T09:09:35;6.50;99.90
74384;DHT22;62824;52.994;-3.936;2022-12-29T09:12:01;6.60;99.90
74384;DHT22;62824;52.994;-3.936;2022-12-29T09:14:27;6.60;99.90
74384;DHT22;62824;52.994;-3.936;2022-12-29T09:16:53;6.60;99.90
74384;DHT22;62824;52.994;-3.936;2022-12-29T09:22:55;6.50;99.90
74384;DHT22;62824;52.994;-3.936;2022-12-29T09:25:21;6.50;99.90
74384;DHT22;62824;52.994;-3.936;2022-12-29T09:27:50;6.60;99.90
74384;DHT22;62824;52.994;-3.936;2022-12-29T09:30:18;6.60;99.90
74384;DHT22;62824;52.994;-3.936;2022-12-29T09:32:44;6.60;99.90
74384;DHT22;62824;52.994;-3.936;2022-12-29T09:35:10;6.60;99.90
74384;DHT22;62824;52.994;-3.936;2022-12-29T09:37:36;6.60;99.90
74384;DHT22;62824;52.994;-3.936;2022-12-29T09:40:03;6.60;99.90
74384;DHT22;62824;52.994;-3.936;2022-12-29T09:42:41;6.60;99.90
74384;DHT22;62824;52.994;-3.936;2022-12-29T09:45:22;6.60;99.90
74384;DHT22;62824;52.994;-3.936;2022-12-29T09:47:51;6.60;99.90
74384;DHT22;62824;52.994;-3.936;2022-12-29T09:50:22;6.60;99.90
74384;DHT22;62824;52.994;-3.936;2022-12-29T09:53:21;6.60;99.90
74384;DHT22;62824;52.994;-3.936;2022-12-29T09:55:53;6.60;99.90
74384;DHT22;62824;52.994;-3.936;2022-12-29T10:01:09;6.60;99.90
74384;DHT22;62824;52.994;-3.936;2022-12-29T10:03:47;6.60;99.90
74384;DHT22;62824;52.994;-3.936;2022-12-29T10:12:58;6.70;99.90
74384;DHT22;62824;52.994;-3.936;2022-12-29T10:18:23;6.70;99.90
74384;DHT22;62824;52.994;-3.936;2022-12-29T10:20:57;6.70;99.90
74384;DHT22;62824;52.994;-3.936;2022-12-29T10:23:28;6.60;99.90
74384;DHT22;62824;52.994;-3.936;2022-12-29T10:25:56;6.60;99.90
74384;DHT22;62824;52.994;-3.936;2022-12-29T10:29:13;6.60;99.90
74384;DHT22;62824;52.994;-3.936;2022-12-29T10:31:16;6.60;99.90
74384;DHT22;62824;52.994;-3.936;2022-12-29T10:33:46;6.70;99.90
74384;DHT22;62824;52.994;-3.936;2022-12-29T10:36:33;6.60;99.90
74384;DHT22;62824;52.994;-3.936;2022-12-29T10:39:25;6.60;99.90
74384;DHT22;62824;52.994;-3.936;2022-12-29T10:42:09;6.70;99.90
74384;DHT22;62824;52.994;-3.936;2022-12-29T10:44:36;6.70;99.90
74384;DHT22;62824;52.994;-3.936;2022-12-29T10:47:05;6.60;99.90
74384;DHT22;62824;52.994;-3.936;2022-12-29T10:53:04;6.60;99.90
74384;DHT22;62824;52.994;-3.936;2022-12-29T10:55:36;6.70;99.90
74384;DHT22;62824;52.994;-3.936;2022-12-29T10:58:06;6.60;99.90
74384;DHT22;62824;52.994;-3.936;2022-12-29T11:00:33;6.60;99.90
74384;DHT22;62824;52.994;-3.936;2022-12-29T11:06:22;6.70;99.90
74384;DHT22;62824;52.994;-3.936;2022-12-29T11:09:19;6.70;99.90
74384;DHT22;62824;52.994;-3.936;2022-12-29T11:11:48;6.70;99.90
74384;DHT22;62824;52.994;-3.936;2022-12-29T11:14:18;6.70;99.90
74384;DHT22;62824;52.994;-3.936;2022-12-29T11:16:58;6.70;99.90
74384;DHT22;62824;52.994;-3.936;2022-12-29T11:19:26;6.70;99.90
74384;DHT22;62824;52.994;-3.936;2022-12-29T11:21:53;6.70;99.90
74384;DHT22;62824;52.994;-3.936;2022-12-29T11:24:25;6.70;99.90
74384;DHT22;62824;52.994;-3.936;2022-12-29T11:26:56;6.70;99.90
74384;DHT22;62824;52.994;-3.936;2022-12-29T11:33:03;6.70;99.90
74384;DHT22;62824;52.994;-3.936;2022-12-29T11:35:36;6.70;99.90
74384;DHT22;62824;52.994;-3.936;2022-12-29T11:38:04;6.70;99.90
74384;DHT22;62824;52.994;-3.936;2022-12-29T11:40:30;6.80;99.90
74384;DHT22;62824;52.994;-3.936;2022-12-29T11:43:03;6.80;99.90
74384;DHT22;62824;52.994;-3.936;2022-12-29T11:45:36;6.80;99.90
74384;DHT22;62824;52.994;-3.936;2022-12-29T11:48:08;6.80;99.90
74384;DHT22;62824;52.994;-3.936;2022-12-29T11:50:38;6.80;99.90
74384;DHT22;62824;52.994;-3.936;2022-12-29T11:55:56;6.80;99.90
74384;DHT22;62824;52.994;-3.936;2022-12-29T11:58:31;6.80;99.90
74384;DHT22;62824;52.994;-3.936;2022-12-29T12:06:26;6.70;99.90
74384;DHT22;62824;52.994;-3.936;2022-12-29T12:09:16;6.80;99.90
74384;DHT22;62824;52.994;-3.936;2022-12-29T12:11:45;6.80;99.90
74384;DHT22;62824;52.994;-3.936;2022-12-29T12:16:41;6.80;99.90
74384;DHT22;62824;52.994;-3.936;2022-12-29T12:19:29;6.70;99.90
74384;DHT22;62824;52.994;-3.936;2022-12-29T12:27:51;6.80;99.90
74384;DHT22;62824;52.994;-3.936;2022-12-29T12:30:21;6.80;99.90
74384;DHT22;62824;52.994;-3.936;2022-12-29T12:32:58;6.80;99.90
74384;DHT22;62824;52.994;-3.936;2022-12-29T13:02:17;6.70;99.90
74384;DHT22;62824;52.994;-3.936;2022-12-29T13:10:16;6.80;99.90
74384;DHT22;62824;52.994;-3.936;2022-12-29T13:23:37;6.70;99.90
74384;DHT22;62824;52.994;-3.936;2022-12-29T13:26:39;6.80;99.90
74384;DHT22;62824;52.994;-3.936;2022-12-29T13:29:23;6.80;99.90
74384;DHT22;62824;52.994;-3.936;2022-12-29T13:31:56;6.80;99.90
74384;DHT22;62824;52.994;-3.936;2022-12-29T13:34:46;6.90;99.90
74384;DHT22;62824;52.994;-3.936;2022-12-29T13:37:16;6.80;99.90
74384;DHT22;62824;52.994;-3.936;2022-12-29T13:39:47;6.80;99.90
74384;DHT22;62824;52.994;-3.936;2022-12-29T13:42:17;6.80;99.90
74384;DHT22;62824;52.994;-3.936;2022-12-29T13:45:04;6.80;99.90
74384;DHT22;62824;52.994;-3.936;2022-12-29T13:47:40;6.80;99.90
74384;DHT22;62824;52.994;-3.936;2022-12-29T13:50:19;6.80;99.90
74384;DHT22;62824;52.994;-3.936;2022-12-29T13:58:20;6.80;99.90
74384;DHT22;62824;52.994;-3.936;2022-12-29T14:01:15;6.80;99.90
74384;DHT22;62824;52.994;-3.936;2022-12-29T14:06:30;6.80;99.90
74384;DHT22;62824;52.994;-3.936;2022-12-29T14:09:05;6.80;99.90
74384;DHT22;62824;52.994;-3.936;2022-12-29T14:11:39;6.80;99.90
74384;DHT22;62824;52.994;-3.936;2022-12-29T14:14:19;6.70;99.90
74384;DHT22;62824;52.994;-3.936;2022-12-29T14:16:46;6.70;99.90
74384;DHT22;62824;52.994;-3.936;2022-12-29T14:19:26;6.70;99.90
74384;DHT22;62824;52.994;-3.936;2022-12-29T14:21:57;6.70;99.90
74384;DHT22;62824;52.994;-3.936;2022-12-29T14:29:54;6.80;99.90
74384;DHT22;62824;52.994;-3.936;2022-12-29T14:34:53;6.80;99.90
74384;DHT22;62824;52.994;-3.936;2022-12-29T14:37:29;6.70;99.90
74384;DHT22;62824;52.994;-3.936;2022-12-29T14:40:03;6.70;99.90
74384;DHT22;62824;52.994;-3.936;2022-12-29T14:42:30;6.70;99.90
74384;DHT22;62824;52.994;-3.936;2022-12-29T14:47:33;6.70;99.90
74384;DHT22;62824;52.994;-3.936;2022-12-29T14:52:47;6.70;99.90
74384;DHT22;62824;52.994;-3.936;2022-12-29T14:57:48;6.80;99.90
74384;DHT22;62824;52.994;-3.936;2022-12-29T15:00:19;6.80;99.90
74384;DHT22;62824;52.994;-3.936;2022-12-29T15:03:07;6.80;99.90
74384;DHT22;62824;52.994;-3.936;2022-12-29T15:05:45;6.80;99.90
74384;DHT22;62824;52.994;-3.936;2022-12-29T15:08:13;6.80;99.90
74384;DHT22;62824;52.994;-3.936;2022-12-29T15:11:12;6.80;99.90
74384;DHT22;62824;52.994;-3.936;2022-12-29T15:13:49;6.80;99.90
74384;DHT22;62824;52.994;-3.936;2022-12-29T15:18:48;6.80;99.90
74384;DHT22;62824;52.994;-3.936;2022-12-29T15:21:15;6.80;99.90
74384;DHT22;62824;52.994;-3.936;2022-12-29T15:23:44;6.80;99.90
74384;DHT22;62824;52.994;-3.936;2022-12-29T15:26:11;6.80;99.90
74384;DHT22;62824;52.994;-3.936;2022-12-29T15:28:46;6.80;99.90
74384;DHT22;62824;52.994;-3.936;2022-12-29T15:31:21;6.90;99.90
74384;DHT22;62824;52.994;-3.936;2022-12-29T15:33:54;6.80;99.90
74384;DHT22;62824;52.994;-3.936;2022-12-29T15:36:26;6.80;99.90
74384;DHT22;62824;52.994;-3.936;2022-12-29T15:38:53;6.80;99.90
74384;DHT22;62824;52.994;-3.936;2022-12-29T15:41:43;6.80;99.90
74384;DHT22;62824;52.994;-3.936;2022-12-29T15:44:45;6.80;99.90
74384;DHT22;62824;52.994;-3.936;2022-12-29T15:47:20;6.80;99.90
74384;DHT22;62824;52.994;-3.936;2022-12-29T15:49:57;6.80;99.90
74384;DHT22;62824;52.994;-3.936;2022-12-29T15:52:25;6.70;99.90
74384;DHT22;62824;52.994;-3.936;2022-12-29T15:54:52;6.70;99.90
74384;DHT22;62824;52.994;-3.936;2022-12-29T15:57:41;6.70;99.90
74384;DHT22;62824;52.994;-3.936;2022-12-29T16:00:28;6.70;99.90
74384;DHT22;62824;52.994;-3.936;2022-12-29T16:02:59;6.70;99.90
74384;DHT22;62824;52.994;-3.936;2022-12-29T16:05:38;6.70;99.90
74384;DHT22;62824;52.994;-3.936;2022-12-29T16:10:59;6.60;99.90
74384;DHT22;62824;52.994;-3.936;2022-12-29T16:13:38;6.60;99.90
74384;DHT22;62824;52.994;-3.936;2022-12-29T16:16:31;6.70;99.90
74384;DHT22;62824;52.994;-3.936;2022-12-29T16:19:46;6.70;99.90
74384;DHT22;62824;52.994;-3.936;2022-12-29T16:21:51;6.70;99.90
74384;DHT22;62824;52.994;-3.936;2022-12-29T16:24:50;6.60;99.90
74384;DHT22;62824;52.994;-3.936;2022-12-29T16:27:59;6.70;99.90
74384;DHT22;62824;52.994;-3.936;2022-12-29T16:30:31;6.70;99.90
74384;DHT22;62824;52.994;-3.936;2022-12-29T16:33:48;6.60;99.90
74384;DHT22;62824;52.994;-3.936;2022-12-29T16:36:38;6.60;99.90
74384;DHT22;62824;52.994;-3.936;2022-12-29T16:39:30;6.60;99.90
74384;DHT22;62824;52.994;-3.936;2022-12-29T16:41:56;6.50;99.90
74384;DHT22;62824;52.994;-3.936;2022-12-29T16:44:23;6.50;99.90
74384;DHT22;62824;52.994;-3.936;2022-12-29T16:49:30;6.60;99.90
74384;DHT22;62824;52.994;-3.936;2022-12-29T16:51:56;6.50;99.90
74384;DHT22;62824;52.994;-3.936;2022-12-29T16:54:32;6.60;99.90
74384;DHT22;62824;52.994;-3.936;2022-12-29T16:56:59;6.60;99.90
74384;DHT22;62824;52.994;-3.936;2022-12-29T17:02:07;6.60;99.90
74384;DHT22;62824;52.994;-3.936;2022-12-29T17:04:33;6.60;99.90
74384;DHT22;62824;52.994;-3.936;2022-12-29T17:06:58;6.50;99.90
74384;DHT22;62824;52.994;-3.936;2022-12-29T17:09:26;6.50;99.90
74384;DHT22;62824;52.994;-3.936;2022-12-29T17:11:55;6.50;99.90
74384;DHT22;62824;52.994;-3.936;2022-12-29T17:14:43;6.50;99.90
74384;DHT22;62824;52.994;-3.936;2022-12-29T17:17:16;6.50;99.90
74384;DHT22;62824;52.994;-3.936;2022-12-29T17:19:50;6.50;99.90
74384;DHT22;62824;52.994;-3.936;2022-12-29T17:22:22;6.40;99.90
74384;DHT22;62824;52.994;-3.936;2022-12-29T17:24:56;6.40;99.90
74384;DHT22;62824;52.994;-3.936;2022-12-29T17:27:35;6.40;99.90
74384;DHT22;62824;52.994;-3.936;2022-12-29T17:32:37;6.40;99.90
74384;DHT22;62824;52.994;-3.936;2022-12-29T17:35:03;6.40;99.90
74384;DHT22;62824;52.994;-3.936;2022-12-29T17:37:33;6.40;99.90
74384;DHT22;62824;52.994;-3.936;2022-12-29T17:39:59;6.30;99.90
74384;DHT22;62824;52.994;-3.936;2022-12-29T17:42:25;6.30;99.90
74384;DHT22;62824;52.994;-3.936;2022-12-29T17:44:51;6.30;99.90
74384;DHT22;62824;52.994;-3.936;2022-12-29T17:47:17;6.30;99.90
74384;DHT22;62824;52.994;-3.936;2022-12-29T17:49:43;6.30;99.90
74384;DHT22;62824;52.994;-3.936;2022-12-29T17:52:13;6.30;99.90
74384;DHT22;62824;52.994;-3.936;2022-12-29T17:54:49;6.30;99.90
74384;DHT22;62824;52.994;-3.936;2022-12-29T17:57:16;6.20;99.90
74384;DHT22;62824;52.994;-3.936;2022-12-29T17:59:46;6.20;99.90
74384;DHT22;62824;52.994;-3.936;2022-12-29T18:04:50;6.20;99.90
74384;DHT22;62824;52.994;-3.936;2022-12-29T18:07:15;6.30;99.90
74384;DHT22;62824;52.994;-3.936;2022-12-29T18:09:41;6.20;99.90
74384;DHT22;62824;52.994;-3.936;2022-12-29T18:14:57;6.30;99.90
74384;DHT22;62824;52.994;-3.936;2022-12-29T18:17:23;6.30;99.90
74384;DHT22;62824;52.994;-3.936;2022-12-29T18:19:48;6.30;99.90
74384;DHT22;62824;52.994;-3.936;2022-12-29T18:22:16;6.30;99.90
74384;DHT22;62824;52.994;-3.936;2022-12-29T18:24:42;6.30;99.90
74384;DHT22;62824;52.994;-3.936;2022-12-29T18:27:12;6.30;99.90
74384;DHT22;62824;52.994;-3.936;2022-12-29T18:29:39;6.30;99.90
74384;DHT22;62824;52.994;-3.936;2022-12-29T18:35:53;6.30;99.90
74384;DHT22;62824;52.994;-3.936;2022-12-29T18:38:19;6.40;99.90
74384;DHT22;62824;52.994;-3.936;2022-12-29T18:40:47;6.40;99.90
74384;DHT22;62824;52.994;-3.936;2022-12-29T18:43:14;6.40;99.90
74384;DHT22;62824;52.994;-3.936;2022-12-29T18:45:41;6.40;99.90
74384;DHT22;62824;52.994;-3.936;2022-12-29T18:48:07;6.40;99.90
74384;DHT22;62824;52.994;-3.936;2022-12-29T18:50:33;6.40;99.90
74384;DHT22;62824;52.994;-3.936;2022-12-29T18:52:59;6.50;99.90